Terminal Aerodrome Forecast
Issued by NWS Chicago, IL

Home | Current Version | Previous Version | Text Only | Print | Product List | Glossary On
Versions: 1 2 3 4 5 6 7 8 9 10 11 12 13 14 15 16 17 18 19 20 21 22 23 24 25
000
FTUS43 KLOT 232324
TAFRFD
TAF
KRFD 232324Z 2400/2424 16013G20KT P6SM VCTS BKN028CB OVC035
      TEMPO 2400/2401 -TSRA OVC024CB
     FM240100 17012KT P6SM FEW035 SCT060 BKN150
     FM240500 19010KT P6SM BKN150 WS015/22050KT
     FM241400 21016G24KT P6SM BKN250
     FM241700 22020G30KT P6SM SCT250
     FM242100 23015G23KT P6SM BKN045=

USA.gov is the U.S. government's official web portal to all federal, state and local government web resources and services.